DEGTL EHRD-EDHE
Flight info
| Callsign | DEGTL |
|---|---|
| Flight time | N/A |
| Altitude | 2000 |
| Route | VFR |
| Aircraft | C182/L-V/N |
Departure
| Time | 2026-05-04 16:02 |
|---|---|
| Airport | Rotterdam The Hague Airport (EHRD) |
Arrival
| Time | N/A |
|---|---|
| Airport | Uetersen-Heist Airfield (EDHE) |
| Time | Latitude | Longitude | Altitude | Speed | Heading |
|---|---|---|---|---|---|
| 2026-05-04 15:48 | 51.95096 | 4.44061 | -12 ft | 0 kts | 54° |
| 2026-05-04 15:56 | 51.95096 | 4.44062 | -12 ft | 1 kts | 63° |
| 2026-05-04 15:56 | 51.95091 | 4.44050 | -12 ft | 6 kts | 267° |
| 2026-05-04 15:56 | 51.95076 | 4.43953 | -12 ft | 11 kts | 249° |
| 2026-05-04 15:56 | 51.95042 | 4.43840 | -12 ft | 15 kts | 245° |
| 2026-05-04 15:57 | 51.95054 | 4.43709 | -12 ft | 13 kts | 334° |
| 2026-05-04 15:57 | 51.95136 | 4.43626 | -11 ft | 14 kts | 326° |
| 2026-05-04 15:57 | 51.95211 | 4.43544 | -12 ft | 12 kts | 333° |
| 2026-05-04 15:57 | 51.95260 | 4.43452 | -13 ft | 11 kts | 245° |
| 2026-05-04 15:58 | 51.95213 | 4.43324 | -11 ft | 16 kts | 245° |
| 2026-05-04 15:58 | 51.95168 | 4.43216 | -11 ft | 3 kts | 239° |
| 2026-05-04 15:58 | 51.95163 | 4.43201 | -11 ft | 7 kts | 251° |
| 2026-05-04 15:58 | 51.95166 | 4.43112 | -10 ft | 8 kts | 324° |
| 2026-05-04 15:59 | 51.95189 | 4.43098 | -9 ft | 0 kts | 2° |
| 2026-05-04 16:01 | 51.95200 | 4.43098 | -9 ft | 8 kts | 360° |
| 2026-05-04 16:01 | 51.95297 | 4.43111 | -9 ft | 17 kts | 18° |
| 2026-05-04 16:01 | 51.95386 | 4.43267 | -12 ft | 30 kts | 58° |
| 2026-05-04 16:01 | 51.95564 | 4.43699 | 7 ft | 57 kts | 47° |
| 2026-05-04 16:02 | 51.95780 | 4.44269 | 138 ft | 58 kts | 46° |
| 2026-05-04 16:02 | 51.95902 | 4.44919 | 274 ft | 69 kts | 65° |
| 2026-05-04 16:02 | 51.95746 | 4.46637 | 653 ft | 93 kts | 94° |
| 2026-05-04 16:03 | 51.95537 | 4.47656 | 854 ft | 99 kts | 108° |
| 2026-05-04 16:03 | 51.95247 | 4.48628 | 1092 ft | 98 kts | 110° |
| 2026-05-04 16:03 | 51.94932 | 4.49755 | 1058 ft | 122 kts | 108° |
| 2026-05-04 16:03 | 51.94798 | 4.51149 | 1066 ft | 131 kts | 81° |
| 2026-05-04 16:04 | 51.95021 | 4.52521 | 1216 ft | 122 kts | 64° |
| 2026-05-04 16:04 | 51.95758 | 4.55070 | 1272 ft | 134 kts | 55° |
| 2026-05-04 16:04 | 51.96222 | 4.56381 | 1386 ft | 130 kts | 59° |
| 2026-05-04 16:05 | 51.96619 | 4.57693 | 1492 ft | 133 kts | 59° |
| 2026-05-04 16:05 | 51.97073 | 4.58955 | 1649 ft | 128 kts | 54° |
| 2026-05-04 16:05 | 51.98217 | 4.61412 | 1532 ft | 141 kts | 49° |
| 2026-05-04 16:06 | 51.98872 | 4.62645 | 1457 ft | 143 kts | 46° |
| 2026-05-04 16:06 | 52.00577 | 4.65869 | 1466 ft | 135 kts | 47° |
| 2026-05-04 16:07 | 52.01587 | 4.66899 | 1407 ft | 128 kts | 27° |
| 2026-05-04 16:07 | 52.03340 | 4.69975 | 1433 ft | 125 kts | 48° |
| 2026-05-04 16:08 | 52.03903 | 4.71018 | 1478 ft | 122 kts | 44° |
| 2026-05-04 16:08 | 52.05891 | 4.73710 | 1484 ft | 122 kts | 31° |
| 2026-05-04 16:09 | 52.06335 | 4.76328 | 1446 ft | 133 kts | 83° |
| 2026-05-04 16:09 | 52.06458 | 4.79419 | 1523 ft | 140 kts | 83° |
| 2026-05-04 16:10 | 52.06585 | 4.82585 | 1669 ft | 141 kts | 83° |
| 2026-05-04 16:11 | 52.06771 | 4.87344 | 1836 ft | 142 kts | 83° |
| 2026-05-04 16:11 | 52.06836 | 4.88947 | 1883 ft | 142 kts | 84° |
| 2026-05-04 16:12 | 52.07033 | 4.93769 | 1987 ft | 144 kts | 84° |
| 2026-05-04 16:12 | 52.07267 | 4.98659 | 1994 ft | 146 kts | 83° |
| 2026-05-04 16:13 | 52.07429 | 5.01967 | 1994 ft | 147 kts | 83° |
| 2026-05-04 16:13 | 52.07590 | 5.05299 | 2001 ft | 148 kts | 83° |
| 2026-05-04 16:14 | 52.07551 | 5.08652 | 2000 ft | 148 kts | 90° |
| 2026-05-04 16:14 | 52.07478 | 5.11993 | 2002 ft | 148 kts | 90° |
| 2026-05-04 16:15 | 52.07375 | 5.17063 | 2005 ft | 152 kts | 90° |
| 2026-05-04 16:16 | 52.07306 | 5.20478 | 2006 ft | 150 kts | 90° |
| 2026-05-04 16:16 | 52.07219 | 5.25544 | 2006 ft | 149 kts | 90° |
| 2026-05-04 16:17 | 52.08117 | 5.28177 | 1999 ft | 143 kts | 27° |
| 2026-05-04 16:18 | 52.10851 | 5.30051 | 1993 ft | 145 kts | 29° |
| 2026-05-04 16:18 | 52.11642 | 5.31080 | 1998 ft | 146 kts | 38° |
| 2026-05-04 16:19 | 52.14002 | 5.34214 | 2004 ft | 145 kts | 37° |
| 2026-05-04 16:19 | 52.15572 | 5.36298 | 2009 ft | 146 kts | 37° |
| 2026-05-04 16:20 | 52.17957 | 5.39457 | 2013 ft | 147 kts | 37° |
| 2026-05-04 16:20 | 52.19543 | 5.41572 | 2015 ft | 147 kts | 37° |
| 2026-05-04 16:21 | 52.21833 | 5.44877 | 2007 ft | 148 kts | 51° |
| 2026-05-04 16:22 | 52.22960 | 5.47678 | 2009 ft | 150 kts | 60° |
| 2026-05-04 16:22 | 52.24468 | 5.52137 | 2018 ft | 149 kts | 59° |
| 2026-05-04 16:23 | 52.25999 | 5.56590 | 2018 ft | 151 kts | 59° |